Siren, Wisconsin
Current Conditions -  °F | °C
As of 8:15 PM on Friday 24 Oct 2014 (Local Time) from KRZN Reporting Station
Clear Clear  
Wind Chill: 55°   Ceiling: Unl
Heat Index: 55°   Visibility: 7mi
Dew Point: 53°   Wind: 6mph
Humidity: 94%   Direction: 200°SSW
Pressure: 29.83"   Gusts: NA
Location:  45.79°N, 92.38°W
Report Text: KRZN 250115Z AUTO 20005KT 7SM CLR 13/12 A2983 RMK AO2 T01250115
Loading
Personal Weather Stations






























Interactive Weather Map
Tropical Storm Tracking
New forecast layout! Learn more

10-Day Weather Forecast

Advertisements
Track Severe Weather on mobile